• Join FlightAware (Why Join?)
  • Login
  • US Flag 
06:53PM EDT


 

Airport Tracker/Info


-or-


 

Live Flight TrackerFlight Track Log ✈ UCA855 ✈ 19-May-2013 ✈ KEWR - KROC

Flight Track Log - Related Links

Times and Time Zones

All times are in EDT time to prevent confusion due to time zone crossing. See the UCA855 flight status page for this flight to view local times or setup timezone preferences in your user account.

Time Position Orientation Groundspeed Altitude Reporting Facility
EDT Latitude Longitude Course Direction KTS MPH feet Rate Location/Type
12:07PM 40.6667 -74.1833 237° Southwest 137 158 700  Level New York TRACON
12:08PM 40.6500 -74.2167 237° Southwest 159 183 1,800 960 Climbing New York TRACON
12:09PM 40.6667 -74.2833 288° West 221 254 2,700 1,020 Climbing New York TRACON
12:10PM 40.7000 -74.3500 303° West 225 259 3,900 1,380 Climbing New York TRACON
12:11PM 40.7500 -74.3667 346° North 232 267 5,500 1,560 Climbing New York TRACON
12:12PM 40.8000 -74.3167 37° Northeast 200 230 7,100 1,260 Climbing New York TRACON
12:12PM 40.8500 -74.3167 360° North 211 243 7,900 900 Climbing New York TRACON
12:14PM 40.9167 -74.3333 349° North 221 254 9,000 1,140 Climbing New York TRACON
12:15PM 40.9667 -74.3667 333° Northwest 213 245 10,400 1,140 Climbing New York TRACON
12:15PM 41.0125 -74.3872 341° North 213 245 11,100 840 Climbing New York Center
12:16PM 41.0636 -74.4147 338° Northwest 207 238 12,000 480 Climbing New York Center
12:17PM 41.1150 -74.4422 338° Northwest 214 246 12,100 420 Climbing New York Center
12:18PM 41.1786 -74.4733 340° North 222 255 12,900 840 Climbing New York Center
12:19PM 41.2297 -74.4981 340° North 216 249 13,900 540 Climbing New York Center
12:20PM 41.2892 -74.5289 339° North 210 242 14,100 60 Climbing New York Center
12:21PM 41.3444 -74.5569 339° North 224 258 14,100  Level New York Center
12:22PM 41.4100 -74.5939 337° Northwest 230 265 14,200  Climbing New York Center
12:23PM 41.4411 -74.6592 302° West 219 252 14,100 -60 Descending New York Center
12:24PM 41.4825 -74.7364 306° West 225 259 14,100  Level New York Center
12:25PM 41.5136 -74.7992 304° West 230 265 14,100  Level New York Center
12:26PM 41.5525 -74.8792 303° West 237 273 14,100 -60 Level New York Center
12:27PM 41.5894 -74.9536 304° West 243 280 14,000 -60 Descending New York Center
12:28PM 41.6242 -75.0278 302° West 243 280 14,000  Level New York Center
12:29PM 41.6575 -75.0911 305° West 243 280 14,000  Level New York Center
12:30PM 41.6922 -75.1656 302° West 243 280 14,000  Level New York Center
12:31PM 41.7328 -75.2461 304° West 243 280 14,000  Level New York Center
12:32PM 41.7675 -75.3206 302° West 243 280 14,000  Level New York Center
12:33PM 41.8019 -75.3953 302° West 243 280 14,000  Level New York Center
12:34PM 41.8350 -75.4589 305° West 243 280 14,000  Level New York Center
12:35PM 41.8711 -75.5422 300° West 243 280 14,000  Level New York Center
12:36PM 41.9100 -75.6147 306° West 243 280 14,000  Level New York Center
12:37PM 41.9422 -75.6894 300° West 243 280 14,000  Level New York Center
12:38PM 41.9789 -75.7619 304° West 243 280 14,000  Level New York Center
12:39PM 42.0131 -75.8372 301° West 243 280 14,000  Level New York Center
12:40PM 42.0456 -75.9039 303° West 243 280 14,000  Level New York Center
12:41PM 42.0858 -75.9853 304° West 243 280 14,000  Level New York Center
12:42PM 42.1197 -76.0633 300° West 243 280 14,000  Level New York Center
12:43PM 42.1558 -76.1389 303° West 243 280 14,000  Level New York Center
12:44PM 42.1900 -76.2144 301° West 243 280 14,000  Level New York Center
12:45PM 42.2239 -76.2931 300° West 243 280 14,000  Level New York Center
12:46PM 42.2556 -76.3711 299° West 243 280 14,000 -120 Level New York Center
12:47PM 42.2786 -76.4153 305° West 240 276 13,900 -60 Descending Cleveland Center
12:48PM 42.3125 -76.4944 300° West 245 282 13,900  Level Cleveland Center
12:49PM 42.3444 -76.5711 299° West 245 282 14,000  Climbing Cleveland Center
12:50PM 42.3786 -76.6506 300° West 245 282 14,000  Level Cleveland Center
12:51PM 42.4125 -76.7272 301° West 245 282 14,000  Level Cleveland Center
12:52PM 42.4442 -76.8042 299° West 240 276 14,000  Level Cleveland Center
12:53PM 42.4781 -76.8836 300° West 240 276 14,000  Level Cleveland Center
12:54PM 42.5078 -76.9636 297° West 240 276 14,100  Climbing Cleveland Center
12:55PM 42.5167 -77.0533 278° West 233 268 14,000 -300 Descending Cleveland Center
12:56PM 42.5258 -77.1458 278° West 238 274 13,500 -840 Descending Cleveland Center
12:57PM 42.5361 -77.2861 276° West 272 313 12,100 -1,140 Descending Cleveland Center
12:58PM 42.5619 -77.3158 320° Northwest 270 311 11,500 -840 Descending Cleveland Center
12:59PM 42.6300 -77.3631 333° Northwest 268 308 10,900 -840 Descending Cleveland Center
01:00PM 42.7061 -77.3989 341° North 266 306 9,800 -1,020 Descending Cleveland Center
01:01PM 42.7672 -77.4267 342° North 268 308 9,000 -900 Descending Cleveland Center
01:01PM 42.7819 -77.4289 354° North 257 296 8,800 -1,140 Descending Cleveland Center
01:02PM 42.8411 -77.4569 341° North 267 307 7,900 -1,020 Descending Cleveland Center
01:02PM 42.8536 -77.4592 353° North 262 302 7,800 -1,740 Descending Cleveland Center
01:03PM 42.9147 -77.4844 343° North 269 310 6,200 -1,800 Descending Cleveland Center
01:03PM 42.9253 -77.4869 350° North 262 302 6,000 -1,800 Descending Cleveland Center
01:04PM 42.9822 -77.5125 342° North 257 296 4,400 -1,800 Descending Cleveland Center
01:04PM 42.9928 -77.5147 351° North 262 302 4,200 -1,440 Descending Cleveland Center
01:05PM 43.0475 -77.5406 341° North 246 283 3,000 -1,320 Descending Cleveland Center
01:05PM 43.0581 -77.5428 351° North 252 290 2,900 -540 Descending Cleveland Center
01:06PM 43.1067 -77.5689 339° North 213 245 2,500 -540 Descending Cleveland Center
01:07PM 43.1472 -77.6039 328° Northwest 164 189 2,000 -720 Descending Cleveland Center
01:08PM 43.1444 -77.6581 266° West 130 150 1,100 -900 Descending Cleveland Center
01:10PM 43.1167 -77.6667 251° West  Level FlightAware Approximate
01:17PM 43.1191 -77.6719 251° West  Level Estimated